Terminal Aerodrome Forecast
Issued by NWS Wakefield, VA

Home | Current Version | Previous Version | Text Only | Print | Product List | Glossary On
Versions: 1 2 3 4 5 6 7 8 9 10 11 12 13 14 15 16
000
FTUS41 KAKQ 161100 RRA
TAFRIC
TAF
KRIC 161142Z 1612/1712 25006KT P6SM SCT006 BKN080
      TEMPO 1612/1614 BKN006
     FM161400 33006KT P6SM BKN040
     FM161800 36005KT P6SM BKN050
     FM170000 04005KT P6SM SCT050 BKN100=

USA.gov is the U.S. government's official web portal to all federal, state and local government web resources and services.